Time;durP1;ratioP1;P1;durP2;ratioP2;P2;SDS_P1;SDS_P2;PMS_P1;PMS_P2;Temp;Humidity;BMP_temperature;BMP_pressure;BME280_temperature;BME280_humidity;BME280_pressure;Samples;Min_cycle;Max_cycle;Signal;HPM_P1;HPM_P2
2023/07/11 00:00:28;;;;;;;7.60;4.40;;;;;;;;;;5035142;28;20431;-69
2023/07/11 00:02:53;;;;;;;4.13;4.03;;;;;;;;;;5034994;28;20431;-69
2023/07/11 00:05:20;;;;;;;4.17;3.97;;;;;;;;;;5034719;28;20474;-69
2023/07/11 00:07:46;;;;;;;5.07;4.80;;;;;;;;;;5034908;28;20416;-69
2023/07/11 00:10:14;;;;;;;5.10;4.70;;;;;;;;;;5034948;28;20434;-69
2023/07/11 00:12:40;;;;;;;4.90;3.60;;;;;;;;;;5034883;28;20512;-69
2023/07/11 00:15:07;;;;;;;4.70;4.50;;;;;;;;;;5034525;28;20428;-69
2023/07/11 00:17:33;;;;;;;10.83;4.73;;;;;;;;;;5034589;28;20415;-69
2023/07/11 00:19:59;;;;;;;4.90;4.50;;;;;;;;;;5034646;28;20427;-69
2023/07/11 00:22:28;;;;;;;4.37;3.93;;;;;;;;;;5034327;28;20826;-69
2023/07/11 00:24:54;;;;;;;4.63;4.30;;;;;;;;;;5034571;28;20467;-69
2023/07/11 00:27:23;;;;;;;4.40;3.97;;;;;;;;;;5034631;28;20509;-69
2023/07/11 00:29:49;;;;;;;4.43;4.23;;;;;;;;;;5034579;28;20427;-69
2023/07/11 00:32:15;;;;;;;4.40;4.00;;;;;;;;;;5034451;28;20502;-69
2023/07/11 00:34:41;;;;;;;4.30;4.10;;;;;;;;;;5034160;28;20425;-69
2023/07/11 00:37:07;;;;;;;3.40;3.30;;;;;;;;;;5034185;28;20419;-69
2023/07/11 00:39:34;;;;;;;4.63;4.43;;;;;;;;;;5034119;28;20451;-69
2023/07/11 00:42:00;;;;;;;4.70;4.20;;;;;;;;;;5034362;28;20868;-70
2023/07/11 00:44:27;;;;;;;3.93;3.63;;;;;;;;;;5034199;28;20498;-69
2023/07/11 00:46:53;;;;;;;5.10;4.63;;;;;;;;;;5034194;28;20408;-69
2023/07/11 00:49:20;;;;;;;7.73;3.80;;;;;;;;;;5033873;28;20475;-69
2023/07/11 00:51:49;;;;;;;3.53;3.03;;;;;;;;;;5034093;28;20412;-69
2023/07/11 00:54:17;;;;;;;2.80;2.73;;;;;;;;;;5034096;28;20427;-69
2023/07/11 00:56:45;;;;;;;4.00;3.67;;;;;;;;;;5033451;28;20412;-69
2023/07/11 00:59:12;;;;;;;5.90;4.90;;;;;;;;;;5034068;28;20966;-69
2023/07/11 01:01:38;;;;;;;4.23;4.00;;;;;;;;;;5033607;28;20438;-69
2023/07/11 01:04:08;;;;;;;10.03;4.20;;;;;;;;;;5033553;28;20467;-69
2023/07/11 01:06:34;;;;;;;4.30;3.83;;;;;;;;;;5033743;28;20494;-69
2023/07/11 01:09:01;;;;;;;4.33;4.10;;;;;;;;;;5033869;28;20442;-69
2023/07/11 01:11:28;;;;;;;6.27;3.50;;;;;;;;;;5033591;28;20407;-69
2023/07/11 01:13:54;;;;;;;5.63;4.53;;;;;;;;;;5033734;28;20411;-69
2023/07/11 01:16:20;;;;;;;4.27;3.87;;;;;;;;;;5033846;28;20420;-69
2023/07/11 01:18:46;;;;;;;8.63;4.30;;;;;;;;;;5033528;28;20450;-69
2023/07/11 01:21:17;;;;;;;4.37;3.97;;;;;;;;;;5033348;28;20478;-69
2023/07/11 01:23:43;;;;;;;5.93;4.30;;;;;;;;;;5033633;28;20482;-69
2023/07/11 01:26:11;;;;;;;6.03;5.73;;;;;;;;;;5033384;28;20415;-69
2023/07/11 01:28:38;;;;;;;4.10;3.80;;;;;;;;;;5033294;28;20872;-69
2023/07/11 01:31:04;;;;;;;3.70;3.57;;;;;;;;;;5033308;28;20816;-69
2023/07/11 01:33:30;;;;;;;5.50;5.10;;;;;;;;;;5048842;28;20423;-69
2023/07/11 01:35:56;;;;;;;6.00;5.27;;;;;;;;;;5033097;28;20938;-69
2023/07/11 01:38:23;;;;;;;5.30;5.00;;;;;;;;;;5033611;28;20497;-69
2023/07/11 01:40:49;;;;;;;4.60;4.30;;;;;;;;;;5033132;28;20512;-69
2023/07/11 01:43:16;;;;;;;5.50;5.10;;;;;;;;;;5033040;28;20427;-69
2023/07/11 01:45:43;;;;;;;7.03;6.40;;;;;;;;;;5033417;28;20451;-69
2023/07/11 01:48:09;;;;;;;5.87;5.37;;;;;;;;;;5033153;28;20415;-69
2023/07/11 01:50:35;;;;;;;5.63;5.23;;;;;;;;;;5032860;28;20475;-69
2023/07/11 01:53:01;;;;;;;6.13;5.53;;;;;;;;;;5033211;28;20451;-69
2023/07/11 01:55:27;;;;;;;7.20;5.57;;;;;;;;;;5033418;28;20427;-69
2023/07/11 01:57:53;;;;;;;5.23;4.93;;;;;;;;;;5033280;28;20422;-69
2023/07/11 02:00:20;;;;;;;5.33;5.10;;;;;;;;;;5033216;28;20438;-69
2023/07/11 02:02:46;;;;;;;5.87;5.27;;;;;;;;;;5033206;28;20219;-69
2023/07/11 02:05:14;;;;;;;12.17;5.63;;;;;;;;;;5033094;28;20483;-69
2023/07/11 02:07:40;;;;;;;5.97;5.50;;;;;;;;;;5033914;28;20882;-69
2023/07/11 02:10:06;;;;;;;5.40;5.10;;;;;;;;;;5037066;28;20423;-69
2023/07/11 02:12:32;;;;;;;7.50;5.47;;;;;;;;;;5037110;28;20179;-69
2023/07/11 02:14:58;;;;;;;4.57;4.23;;;;;;;;;;5036792;28;20758;-69
2023/07/11 02:17:24;;;;;;;14.33;5.70;;;;;;;;;;5036755;28;20472;-69
2023/07/11 02:19:50;;;;;;;5.50;5.10;;;;;;;;;;5036655;28;20184;-69
2023/07/11 02:22:16;;;;;;;9.97;5.80;;;;;;;;;;5036937;28;20422;-69
2023/07/11 02:24:42;;;;;;;5.37;5.07;;;;;;;;;;5036461;28;20238;-69
2023/07/11 02:27:08;;;;;;;5.50;5.13;;;;;;;;;;5036494;28;20961;-69
2023/07/11 02:29:34;;;;;;;6.43;6.03;;;;;;;;;;5036831;28;20907;-69
2023/07/11 02:32:01;;;;;;;6.70;6.07;;;;;;;;;;5036534;28;20442;-69
2023/07/11 02:34:27;;;;;;;6.33;5.73;;;;;;;;;;5036363;28;20457;-69
2023/07/11 02:36:53;;;;;;;5.33;4.87;;;;;;;;;;5036386;28;20412;-69
2023/07/11 02:39:19;;;;;;;36.00;7.10;;;;;;;;;;5036306;28;20767;-69
2023/07/11 02:41:45;;;;;;;9.63;5.77;;;;;;;;;;5036642;28;20430;-69
2023/07/11 02:44:11;;;;;;;11.73;6.17;;;;;;;;;;5036166;28;20856;-69
2023/07/11 02:46:37;;;;;;;7.00;6.40;;;;;;;;;;5036405;28;20498;-69
2023/07/11 02:49:08;;;;;;;10.00;6.13;;;;;;;;;;5036124;28;20954;-69
2023/07/11 02:51:35;;;;;;;5.70;5.27;;;;;;;;;;5051594;28;20426;-69
2023/07/11 02:54:01;;;;;;;6.07;5.60;;;;;;;;;;5036026;28;20435;-69
2023/07/11 02:56:26;;;;;;;9.30;6.33;;;;;;;;;;5036063;28;20511;-69
2023/07/11 02:58:53;;;;;;;5.50;4.97;;;;;;;;;;5035969;28;20957;-69
2023/07/11 03:01:19;;;;;;;5.83;5.43;;;;;;;;;;5036251;28;20458;-69
2023/07/11 03:03:45;;;;;;;5.93;5.43;;;;;;;;;;5036139;28;20494;-69
2023/07/11 03:06:11;;;;;;;6.30;4.77;;;;;;;;;;5035811;28;20921;-69
2023/07/11 03:11:41;;;;;;;6.03;5.00;;;;;;;;;;5036066;28;20390;-70
2023/07/11 03:14:07;;;;;;;5.47;5.03;;;;;;;;;;5036015;28;20411;-69
2023/07/11 03:16:33;;;;;;;4.47;4.23;;;;;;;;;;5035675;28;20515;-69
2023/07/11 03:18:59;;;;;;;5.60;5.17;;;;;;;;;;5035617;28;20411;-69
2023/07/11 03:21:25;;;;;;;4.80;4.50;;;;;;;;;;5035655;28;20899;-69
2023/07/11 03:23:51;;;;;;;5.37;5.10;;;;;;;;;;5036036;28;20552;-69
2023/07/11 03:26:17;;;;;;;5.87;5.27;;;;;;;;;;5035600;28;20544;-69
2023/07/11 03:28:43;;;;;;;6.77;5.37;;;;;;;;;;5035703;28;20602;-69
2023/07/11 03:31:09;;;;;;;5.60;5.10;;;;;;;;;;5035377;28;20458;-69
2023/07/11 03:33:35;;;;;;;6.07;5.57;;;;;;;;;;5035648;28;20464;-69
2023/07/11 03:36:01;;;;;;;7.20;6.17;;;;;;;;;;5035308;28;20967;-69
2023/07/11 03:38:27;;;;;;;9.37;6.00;;;;;;;;;;5035792;28;20408;-69
2023/07/11 03:40:53;;;;;;;6.00;5.70;;;;;;;;;;5035518;28;20861;-69
2023/07/11 03:43:19;;;;;;;6.00;5.80;;;;;;;;;;5035142;28;20506;-69
2023/07/11 03:45:48;;;;;;;5.50;5.00;;;;;;;;;;5035432;28;20423;-69
2023/07/11 03:48:15;;;;;;;5.53;5.33;;;;;;;;;;5035336;28;20784;-69
2023/07/11 03:50:41;;;;;;;7.67;5.73;;;;;;;;;;5034922;28;20497;-69
2023/07/11 03:53:07;;;;;;;6.57;5.83;;;;;;;;;;5034938;28;20410;-69
2023/07/11 03:55:33;;;;;;;7.40;6.90;;;;;;;;;;5035465;28;20411;-69
2023/07/11 03:57:59;;;;;;;9.27;6.50;;;;;;;;;;5034915;28;20505;-69
2023/07/11 04:00:24;;;;;;;5.80;5.50;;;;;;;;;;5035420;28;20424;-70
2023/07/11 04:02:51;;;;;;;5.67;5.37;;;;;;;;;;5034794;28;20850;-69
2023/07/11 04:05:17;;;;;;;5.73;5.30;;;;;;;;;;5035178;28;20988;-69
2023/07/11 04:07:43;;;;;;;5.87;5.57;;;;;;;;;;5034712;28;20416;-69
2023/07/11 04:10:12;;;;;;;5.73;5.40;;;;;;;;;;5034596;28;20787;-69
2023/07/11 04:12:38;;;;;;;5.93;5.40;;;;;;;;;;5034611;28;20443;-69
2023/07/11 04:15:04;;;;;;;6.47;5.90;;;;;;;;;;5034563;28;20578;-69
2023/07/11 04:17:30;;;;;;;5.53;5.03;;;;;;;;;;5034638;28;20491;-69
2023/07/11 04:19:56;;;;;;;6.60;6.10;;;;;;;;;;5034438;28;20459;-69
2023/07/11 04:22:22;;;;;;;5.60;5.37;;;;;;;;;;5034965;28;20419;-69
2023/07/11 04:24:48;;;;;;;8.67;5.70;;;;;;;;;;5034376;28;20466;-69
2023/07/11 04:27:14;;;;;;;7.07;6.43;;;;;;;;;;5034669;28;20412;-69
2023/07/11 04:29:40;;;;;;;11.30;6.80;;;;;;;;;;5034546;28;20942;-69
2023/07/11 04:32:06;;;;;;;6.33;6.00;;;;;;;;;;5033532;28;20549;-69
2023/07/11 04:34:33;;;;;;;7.00;6.50;;;;;;;;;;5034302;28;20426;-69
2023/07/11 04:36:59;;;;;;;8.60;6.70;;;;;;;;;;5034248;28;20510;-69
2023/07/11 04:39:25;;;;;;;7.10;6.43;;;;;;;;;;5034386;28;20454;-69
2023/07/11 04:41:50;;;;;;;5.73;5.43;;;;;;;;;;5034099;28;20422;-69
2023/07/11 04:44:16;;;;;;;8.60;5.23;;;;;;;;;;5033976;28;20548;-69
2023/07/11 04:46:42;;;;;;;6.93;6.40;;;;;;;;;;5034155;28;20458;-63
2023/07/11 04:49:08;;;;;;;15.90;5.90;;;;;;;;;;5033698;28;20479;-63
2023/07/11 04:51:34;;;;;;;6.10;5.70;;;;;;;;;;5033911;28;20177;-63
2023/07/11 04:54:00;;;;;;;8.50;7.10;;;;;;;;;;5034027;28;20219;-63
2023/07/11 04:56:26;;;;;;;6.20;5.70;;;;;;;;;;5033737;28;20183;-63
2023/07/11 04:58:52;;;;;;;9.57;6.50;;;;;;;;;;5033718;28;20184;-63
2023/07/11 05:01:18;;;;;;;10.80;7.00;;;;;;;;;;5033721;28;20423;-64
2023/07/11 05:03:45;;;;;;;6.13;5.50;;;;;;;;;;5033525;28;20228;-64
2023/07/11 05:06:12;;;;;;;6.83;6.33;;;;;;;;;;5033903;28;20785;-64
2023/07/11 05:08:38;;;;;;;7.50;6.37;;;;;;;;;;5033803;28;20428;-64
2023/07/11 05:11:07;;;;;;;6.90;6.50;;;;;;;;;;5033598;28;20438;-64
2023/07/11 05:13:33;;;;;;;6.63;6.03;;;;;;;;;;5033829;28;20786;-64
2023/07/11 05:16:03;;;;;;;6.90;6.30;;;;;;;;;;5033738;28;20447;-64
2023/07/11 05:18:29;;;;;;;6.70;6.20;;;;;;;;;;5034496;28;20497;-64
2023/07/11 05:20:56;;;;;;;5.43;5.13;;;;;;;;;;5033924;28;20463;-64
2023/07/11 05:23:22;;;;;;;15.00;10.63;;;;;;;;;;5033545;28;20925;-64
2023/07/11 05:25:48;;;;;;;7.10;6.13;;;;;;;;;;5033284;28;20432;-64
2023/07/11 05:28:16;;;;;;;10.53;9.63;;;;;;;;;;5033592;28;20419;-64
2023/07/11 05:30:42;;;;;;;10.07;7.80;;;;;;;;;;5033374;28;20449;-64
2023/07/11 05:33:07;;;;;;;6.97;5.57;;;;;;;;;;5033083;28;20422;-64
2023/07/11 05:35:37;;;;;;;6.30;5.90;;;;;;;;;;5033282;28;20434;-64
2023/07/11 05:38:03;;;;;;;7.87;6.00;;;;;;;;;;5033222;28;20750;-64
2023/07/11 05:40:30;;;;;;;6.67;6.07;;;;;;;;;;5033542;28;20427;-64
2023/07/11 05:42:56;;;;;;;12.73;7.33;;;;;;;;;;5033106;28;20468;-64
2023/07/11 05:45:22;;;;;;;6.53;5.93;;;;;;;;;;5033228;28;20562;-64
2023/07/11 05:47:48;;;;;;;6.60;6.30;;;;;;;;;;5048441;28;20506;-64
2023/07/11 05:50:14;;;;;;;6.30;5.80;;;;;;;;;;5030727;28;20479;-64
2023/07/11 05:52:40;;;;;;;6.37;5.77;;;;;;;;;;5033055;28;20415;-64
2023/07/11 05:55:06;;;;;;;6.03;5.60;;;;;;;;;;5033103;28;20424;-64
2023/07/11 05:57:32;;;;;;;6.83;6.33;;;;;;;;;;5033378;28;20176;-64
2023/07/11 05:59:58;;;;;;;8.80;6.20;;;;;;;;;;5033052;28;20924;-63
2023/07/11 06:02:24;;;;;;;16.53;6.50;;;;;;;;;;5033116;28;20422;-64
2023/07/11 06:04:50;;;;;;;12.83;6.87;;;;;;;;;;5032688;28;20474;-63
2023/07/11 06:07:16;;;;;;;7.10;6.10;;;;;;;;;;5033132;28;20443;-63
2023/07/11 06:09:42;;;;;;;8.23;6.27;;;;;;;;;;5033148;28;20189;-63
2023/07/11 06:12:08;;;;;;;8.87;7.47;;;;;;;;;;5033037;28;20465;-63
2023/07/11 06:14:34;;;;;;;5.80;5.27;;;;;;;;;;5048147;28;20502;-63
2023/07/11 06:17:00;;;;;;;6.80;5.97;;;;;;;;;;5032777;28;20443;-63
2023/07/11 06:19:26;;;;;;;7.80;6.13;;;;;;;;;;5033211;28;20423;-63
2023/07/11 06:21:52;;;;;;;7.30;6.70;;;;;;;;;;5032832;28;20496;-63
2023/07/11 06:24:18;;;;;;;7.00;6.40;;;;;;;;;;5032947;28;20812;-63
2023/07/11 06:26:44;;;;;;;6.37;6.07;;;;;;;;;;5032812;28;20253;-63
2023/07/11 06:29:10;;;;;;;7.03;5.43;;;;;;;;;;5032573;28;20411;-63
2023/07/11 06:31:36;;;;;;;6.57;6.17;;;;;;;;;;5032683;28;20938;-63
2023/07/11 06:34:02;;;;;;;6.07;5.63;;;;;;;;;;5032466;28;20419;-63
2023/07/11 06:36:28;;;;;;;13.03;6.60;;;;;;;;;;5032730;28;20423;-63
2023/07/11 06:38:54;;;;;;;12.47;7.03;;;;;;;;;;5032645;28;20760;-63
2023/07/11 06:41:20;;;;;;;7.80;6.97;;;;;;;;;;5033059;28;20493;-64
2023/07/11 06:43:46;;;;;;;10.13;6.60;;;;;;;;;;5032411;28;20502;-63
2023/07/11 06:46:12;;;;;;;6.13;5.73;;;;;;;;;;5033046;28;20883;-64
2023/07/11 06:48:38;;;;;;;7.63;6.50;;;;;;;;;;5032404;28;20473;-63
2023/07/11 06:51:05;;;;;;;7.53;6.93;;;;;;;;;;5032535;28;20423;-64
2023/07/11 06:53:32;;;;;;;13.73;6.50;;;;;;;;;;5047789;28;20423;-64
2023/07/11 06:55:58;;;;;;;6.13;5.63;;;;;;;;;;5036062;28;20553;-64
2023/07/11 06:58:24;;;;;;;10.23;6.23;;;;;;;;;;5035443;28;20430;-63
2023/07/11 07:01:00;;;;;;;8.63;6.83;;;;;;;;;;5035866;28;20971;-64
2023/07/11 07:03:25;;;;;;;6.47;5.87;;;;;;;;;;5036027;28;20422;-63
2023/07/11 07:05:54;;;;;;;6.90;6.47;;;;;;;;;;5035902;28;20914;-64
2023/07/11 07:08:20;;;;;;;9.37;7.27;;;;;;;;;;5035738;28;20471;-63
2023/07/11 07:10:47;;;;;;;10.00;7.77;;;;;;;;;;5051136;28;20463;-63
2023/07/11 07:13:14;;;;;;;8.17;6.73;;;;;;;;;;5035896;28;20506;-63
2023/07/11 07:15:39;;;;;;;5.07;4.87;;;;;;;;;;5035915;28;20784;-63
2023/07/11 07:18:05;;;;;;;8.53;7.63;;;;;;;;;;5036066;28;20906;-63
2023/07/11 07:20:32;;;;;;;15.37;7.07;;;;;;;;;;5035669;28;20473;-63
2023/07/11 07:22:58;;;;;;;6.80;6.23;;;;;;;;;;5035982;28;20427;-63
2023/07/11 07:25:24;;;;;;;6.67;6.17;;;;;;;;;;5035676;28;20481;-63
2023/07/11 07:27:50;;;;;;;8.53;7.73;;;;;;;;;;5035466;28;20411;-63
2023/07/11 07:30:16;;;;;;;7.63;7.03;;;;;;;;;;5035933;28;20424;-63
2023/07/11 07:32:42;;;;;;;7.93;7.20;;;;;;;;;;5035501;28;20492;-64
2023/07/11 07:35:08;;;;;;;8.63;7.57;;;;;;;;;;5035427;28;20454;-63
2023/07/11 07:37:35;;;;;;;9.83;7.87;;;;;;;;;;5035502;28;20423;-63
2023/07/11 07:40:01;;;;;;;19.50;8.20;;;;;;;;;;5035119;28;20903;-63
2023/07/11 07:42:27;;;;;;;18.43;6.80;;;;;;;;;;5035077;28;20434;-63
2023/07/11 07:44:55;;;;;;;12.97;7.30;;;;;;;;;;5035356;28;20479;-63
2023/07/11 07:47:21;;;;;;;8.90;6.60;;;;;;;;;;5035097;28;20940;-63
2023/07/11 07:49:47;;;;;;;8.40;7.70;;;;;;;;;;5034820;28;20470;-63
2023/07/11 07:52:13;;;;;;;7.70;6.80;;;;;;;;;;5035032;28;20423;-64
2023/07/11 07:54:39;;;;;;;8.73;8.13;;;;;;;;;;5050149;28;20411;-64
2023/07/11 07:57:05;;;;;;;8.47;7.67;;;;;;;;;;5035122;28;20180;-63
2023/07/11 07:59:31;;;;;;;13.33;7.20;;;;;;;;;;5034891;28;20974;-64
2023/07/11 08:01:57;;;;;;;6.83;6.33;;;;;;;;;;5034560;28;20937;-63
2023/07/11 08:04:23;;;;;;;5.70;5.03;;;;;;;;;;5034627;28;20470;-63
2023/07/11 08:06:49;;;;;;;7.80;7.00;;;;;;;;;;5033746;28;20418;-63
2023/07/11 08:09:15;;;;;;;7.53;6.97;;;;;;;;;;5050223;28;20965;-64
2023/07/11 08:11:44;;;;;;;7.83;6.60;;;;;;;;;;5034895;28;20438;-64
2023/07/11 08:14:10;;;;;;;6.90;5.70;;;;;;;;;;5034767;28;20958;-64
2023/07/11 08:16:38;;;;;;;6.67;6.20;;;;;;;;;;5049873;28;20465;-63
2023/07/11 08:19:04;;;;;;;6.20;5.70;;;;;;;;;;5034495;28;20420;-63
2023/07/11 08:21:31;;;;;;;6.63;5.70;;;;;;;;;;5034564;28;20502;-64
2023/07/11 08:23:57;;;;;;;6.53;5.77;;;;;;;;;;5034570;28;20859;-63
2023/07/11 08:26:23;;;;;;;10.30;6.10;;;;;;;;;;5034326;28;20408;-63
2023/07/11 08:28:52;;;;;;;6.50;5.87;;;;;;;;;;5034182;28;20534;-64
2023/07/11 08:31:18;;;;;;;6.60;6.00;;;;;;;;;;5034159;28;20542;-64
2023/07/11 08:33:45;;;;;;;5.67;4.67;;;;;;;;;;5034372;28;20423;-63
2023/07/11 08:36:11;;;;;;;6.47;6.07;;;;;;;;;;5034452;28;20411;-63
2023/07/11 08:38:37;;;;;;;6.03;5.33;;;;;;;;;;5034138;28;20404;-63
2023/07/11 08:41:18;;;;;;;11.80;5.13;;;;;;;;;;5034606;28;20913;-64
2023/07/11 08:43:44;;;;;;;11.50;6.30;;;;;;;;;;5034605;28;20483;-63
2023/07/11 08:46:14;;;;;;;6.27;5.77;;;;;;;;;;5034270;28;20427;-64
2023/07/11 08:48:49;;;;;;;5.93;5.43;;;;;;;;;;5033689;28;20411;-64
2023/07/11 08:51:21;;;;;;;3.67;3.57;;;;;;;;;;5034044;28;20473;-64
2023/07/11 08:53:51;;;;;;;10.47;5.70;;;;;;;;;;5033909;28;20451;-63
2023/07/11 08:56:23;;;;;;;6.40;5.90;;;;;;;;;;5034413;28;20454;-64
2023/07/11 08:58:50;;;;;;;5.33;4.87;;;;;;;;;;5034076;28;20419;-64
2023/07/11 09:01:32;;;;;;;8.50;5.90;;;;;;;;;;5033658;28;21038;-63
2023/07/11 09:04:00;;;;;;;6.03;5.43;;;;;;;;;;5033619;28;20470;-64
2023/07/11 09:06:31;;;;;;;7.27;6.60;;;;;;;;;;5033641;28;20419;-63
2023/07/11 09:08:57;;;;;;;5.70;5.37;;;;;;;;;;5033809;28;20746;-63
2023/07/11 09:11:25;;;;;;;6.87;6.37;;;;;;;;;;5032693;28;20414;-64
2023/07/11 09:13:52;;;;;;;5.57;5.30;;;;;;;;;;5033213;28;20419;-63
2023/07/11 09:16:27;;;;;;;6.60;6.00;;;;;;;;;;5033319;28;20415;-64
2023/07/11 09:19:25;;;;;;;7.17;6.67;;;;;;;;;;5033157;28;20419;-64
2023/07/11 09:21:57;;;;;;;6.50;5.90;;;;;;;;;;5021702;28;20434;-64
2023/07/11 09:24:31;;;;;;;8.90;7.10;;;;;;;;;;5033632;28;20569;-64
2023/07/11 09:26:58;;;;;;;7.47;6.30;;;;;;;;;;5033763;28;20449;-64
2023/07/11 09:32:33;;;;;;;5.67;5.00;;;;;;;;;;5033255;28;20414;-64
2023/07/11 09:35:01;;;;;;;8.27;6.33;;;;;;;;;;5033144;28;20419;-64
2023/07/11 09:37:35;;;;;;;6.47;5.93;;;;;;;;;;5033268;28;20840;-64
2023/07/11 09:40:24;;;;;;;8.30;6.13;;;;;;;;;;5033019;28;20419;-63
2023/07/11 09:42:52;;;;;;;6.63;6.13;;;;;;;;;;5030385;28;20514;-63
2023/07/11 09:45:19;;;;;;;10.50;5.83;;;;;;;;;;5032734;28;20553;-63
2023/07/11 09:47:48;;;;;;;10.90;6.13;;;;;;;;;;5033392;28;20454;-63
2023/07/11 09:50:27;;;;;;;7.23;6.60;;;;;;;;;;5032794;28;20498;-63
2023/07/11 09:52:56;;;;;;;8.70;6.47;;;;;;;;;;5033169;28;20419;-63
2023/07/11 09:55:26;;;;;;;9.97;6.07;;;;;;;;;;5033076;28;20492;-63
2023/07/11 09:57:52;;;;;;;7.10;6.37;;;;;;;;;;5033302;28;20433;-63
2023/07/11 10:00:18;;;;;;;7.87;6.83;;;;;;;;;;5048303;28;20415;-69
2023/07/11 10:02:48;;;;;;;7.17;6.50;;;;;;;;;;5033177;28;20433;-69
2023/07/11 10:05:14;;;;;;;11.77;6.20;;;;;;;;;;5033029;28;20562;-69
2023/07/11 10:10:54;;;;;;;7.10;6.40;;;;;;;;;;5032979;28;20394;-69
2023/07/11 10:13:21;;;;;;;6.70;6.17;;;;;;;;;;5048338;28;20427;-69
2023/07/11 10:15:48;;;;;;;8.70;5.40;;;;;;;;;;5032903;28;20921;-69
2023/07/11 10:18:18;;;;;;;11.87;5.93;;;;;;;;;;5048145;28;20418;-70
2023/07/11 10:20:45;;;;;;;9.63;5.83;;;;;;;;;;5048135;28;20929;-69
2023/07/11 10:23:12;;;;;;;15.20;6.30;;;;;;;;;;5033092;28;20411;-69
2023/07/11 10:25:41;;;;;;;11.80;5.50;;;;;;;;;;5033235;28;20462;-69
2023/07/11 10:28:20;;;;;;;6.07;5.67;;;;;;;;;;5032717;28;20825;-69
2023/07/11 10:30:46;;;;;;;5.70;4.97;;;;;;;;;;5037376;28;20758;-69
2023/07/11 10:33:12;;;;;;;11.67;6.10;;;;;;;;;;5036496;28;20502;-69
2023/07/11 10:35:39;;;;;;;6.40;5.83;;;;;;;;;;5036836;28;20473;-69
2023/07/11 10:38:08;;;;;;;5.83;4.90;;;;;;;;;;5036782;28;20470;-70
2023/07/11 10:40:38;;;;;;;6.93;6.20;;;;;;;;;;5036331;28;20442;-69
2023/07/11 10:43:14;;;;;;;21.30;5.50;;;;;;;;;;5036630;28;20764;-68
2023/07/11 10:45:45;;;;;;;9.40;6.03;;;;;;;;;;5036233;28;20869;-69
2023/07/11 10:48:14;;;;;;;6.60;6.20;;;;;;;;;;5036766;28;20419;-69
2023/07/11 10:50:46;;;;;;;7.00;6.03;;;;;;;;;;5036008;28;20509;-69
2023/07/11 10:53:18;;;;;;;11.53;5.60;;;;;;;;;;5036416;28;20777;-68
2023/07/11 10:55:49;;;;;;;15.63;6.10;;;;;;;;;;5036346;28;20456;-69
2023/07/11 10:58:18;;;;;;;10.37;6.40;;;;;;;;;;5036086;28;20982;-69
2023/07/11 11:01:03;;;;;;;6.27;5.77;;;;;;;;;;5036199;28;20490;-69
2023/07/11 11:03:37;;;;;;;12.20;6.03;;;;;;;;;;5035790;28;20828;-69
2023/07/11 11:06:16;;;;;;;5.90;5.40;;;;;;;;;;5036038;28;20427;-69
2023/07/11 11:08:47;;;;;;;9.73;6.10;;;;;;;;;;5036109;28;20415;-69
2023/07/11 11:11:30;;;;;;;5.17;4.87;;;;;;;;;;5035915;28;20458;-69
2023/07/11 11:14:02;;;;;;;5.53;5.30;;;;;;;;;;5036215;28;20411;-69
2023/07/11 11:16:32;;;;;;;7.57;6.17;;;;;;;;;;5035887;28;20490;-69
2023/07/11 11:19:34;;;;;;;7.90;6.40;;;;;;;;;;5035824;28;20484;-69
2023/07/11 11:22:03;;;;;;;9.97;6.17;;;;;;;;;;5013682;28;20438;-69
2023/07/11 11:24:34;;;;;;;6.87;5.67;;;;;;;;;;5043597;28;20548;-69
2023/07/11 11:27:19;;;;;;;6.40;6.10;;;;;;;;;;5035346;28;20933;-69
2023/07/11 11:29:51;;;;;;;8.40;7.53;;;;;;;;;;5035350;28;20411;-69
2023/07/11 11:32:31;;;;;;;8.53;7.40;;;;;;;;;;5035167;28;20415;-69
2023/07/11 11:35:16;;;;;;;4.20;4.10;;;;;;;;;;5035535;28;20403;-69
2023/07/11 11:38:07;;;;;;;10.50;6.77;;;;;;;;;;5035497;28;20415;-69
2023/07/11 11:40:41;;;;;;;7.43;6.77;;;;;;;;;;5050131;28;20902;-69
2023/07/11 11:43:11;;;;;;;12.47;6.10;;;;;;;;;;5035341;28;20424;-69
2023/07/11 11:45:37;;;;;;;6.57;6.07;;;;;;;;;;5035318;28;20533;-69
2023/07/11 11:48:03;;;;;;;9.20;6.40;;;;;;;;;;5035018;28;20815;-69
2023/07/11 11:50:30;;;;;;;4.67;4.40;;;;;;;;;;5034752;28;20475;-69
2023/07/11 11:52:57;;;;;;;5.90;5.60;;;;;;;;;;5035264;28;20506;-69
2023/07/11 11:55:36;;;;;;;5.97;5.10;;;;;;;;;;5035332;28;20422;-69
2023/07/11 11:58:03;;;;;;;7.63;6.00;;;;;;;;;;5035272;28;20407;-69
2023/07/11 12:00:46;;;;;;;15.27;6.60;;;;;;;;;;5035050;28;20465;-69
2023/07/11 12:03:38;;;;;;;8.00;7.20;;;;;;;;;;5034661;28;20530;-69
2023/07/11 12:06:24;;;;;;;5.83;5.43;;;;;;;;;;5034286;28;20467;-69
2023/07/11 12:09:10;;;;;;;8.33;5.20;;;;;;;;;;5034549;28;20953;-69
2023/07/11 12:11:36;;;;;;;6.93;6.27;;;;;;;;;;5034619;28;20842;-69
2023/07/11 12:14:25;;;;;;;6.97;6.00;;;;;;;;;;5034967;28;20472;-69
2023/07/11 12:16:52;;;;;;;6.20;5.80;;;;;;;;;;5034559;28;20423;-69
2023/07/11 12:19:42;;;;;;;5.43;5.10;;;;;;;;;;5049876;28;20422;-69
2023/07/11 12:22:09;;;;;;;5.93;5.63;;;;;;;;;;5031582;28;20428;-69
2023/07/11 12:24:35;;;;;;;7.17;6.43;;;;;;;;;;5034540;28;20605;-69
2023/07/11 12:27:19;;;;;;;18.67;6.60;;;;;;;;;;5034640;28;20460;-69
2023/07/11 12:29:49;;;;;;;5.40;4.27;;;;;;;;;;5034076;28;20968;-69
2023/07/11 12:32:32;;;;;;;6.27;5.73;;;;;;;;;;5034148;28;20419;-69
2023/07/11 12:34:58;;;;;;;13.00;6.43;;;;;;;;;;5034354;28;20427;-69
2023/07/11 12:37:28;;;;;;;13.20;6.10;;;;;;;;;;5034453;28;20419;-69
2023/07/11 12:40:12;;;;;;;6.37;5.70;;;;;;;;;;5034103;28;20438;-69
2023/07/11 12:42:51;;;;;;;16.93;5.50;;;;;;;;;;5034343;28;20420;-69
2023/07/11 12:45:19;;;;;;;10.70;5.60;;;;;;;;;;5033935;28;20506;-69
2023/07/11 12:47:46;;;;;;;5.50;5.10;;;;;;;;;;5034204;28;20444;-69
2023/07/11 12:50:20;;;;;;;5.70;5.13;;;;;;;;;;5049026;28;20474;-69
2023/07/11 12:52:46;;;;;;;8.33;5.73;;;;;;;;;;5048559;28;20415;-69
2023/07/11 12:55:12;;;;;;;7.43;3.70;;;;;;;;;;5033816;28;20929;-69
2023/07/11 12:57:44;;;;;;;7.77;4.67;;;;;;;;;;5034040;28;20415;-70
2023/07/11 13:00:20;;;;;;;4.30;4.00;;;;;;;;;;5033963;28;20494;-69
2023/07/11 13:02:46;;;;;;;5.20;4.70;;;;;;;;;;5048993;28;20817;-69
2023/07/11 13:05:13;;;;;;;4.33;4.13;;;;;;;;;;5033884;28;20481;-70
2023/07/11 13:07:41;;;;;;;7.77;4.30;;;;;;;;;;5033989;28;20473;-69
2023/07/11 13:10:24;;;;;;;5.73;3.33;;;;;;;;;;5033630;28;20450;-69
2023/07/11 13:12:54;;;;;;;6.33;4.30;;;;;;;;;;5033856;28;20400;-70
2023/07/11 13:15:22;;;;;;;5.00;4.60;;;;;;;;;;5033562;28;20499;-69
2023/07/11 13:17:50;;;;;;;5.70;5.30;;;;;;;;;;5033484;28;20879;-69
2023/07/11 13:20:19;;;;;;;5.70;5.30;;;;;;;;;;5033385;28;20801;-70
2023/07/11 13:22:45;;;;;;;5.47;4.97;;;;;;;;;;5032994;28;20417;-69
2023/07/11 13:25:31;;;;;;;6.63;5.40;;;;;;;;;;5033593;28;20475;-69
2023/07/11 13:27:57;;;;;;;6.13;5.60;;;;;;;;;;5033268;28;20498;-69
2023/07/11 13:30:26;;;;;;;4.70;4.37;;;;;;;;;;5033606;28;20412;-69
2023/07/11 13:32:54;;;;;;;5.07;4.40;;;;;;;;;;5033237;28;20489;-69
2023/07/11 13:35:20;;;;;;;7.23;5.90;;;;;;;;;;5033149;28;20910;-69
2023/07/11 13:37:47;;;;;;;12.50;6.00;;;;;;;;;;5033529;28;20418;-69
2023/07/11 13:40:31;;;;;;;6.13;5.60;;;;;;;;;;5033126;28;20411;-69
2023/07/11 13:42:58;;;;;;;5.97;5.53;;;;;;;;;;5033361;28;20439;-69
2023/07/11 13:45:25;;;;;;;7.87;6.27;;;;;;;;;;5048313;28;20506;-69
2023/07/11 13:47:52;;;;;;;5.40;5.00;;;;;;;;;;5033178;28;20422;-69
2023/07/11 13:50:30;;;;;;;13.53;6.73;;;;;;;;;;5032787;28;20992;-70
2023/07/11 13:53:11;;;;;;;6.60;6.00;;;;;;;;;;5033352;28;20422;-69
2023/07/11 13:55:44;;;;;;;7.73;5.40;;;;;;;;;;5033330;28;20478;-69
2023/07/11 13:58:11;;;;;;;8.13;7.33;;;;;;;;;;5048412;28;20773;-69
2023/07/11 14:00:37;;;;;;;13.53;5.60;;;;;;;;;;5032981;28;20415;-69
2023/07/11 14:03:03;;;;;;;6.67;5.90;;;;;;;;;;5034741;28;20489;-69
2023/07/11 14:05:30;;;;;;;8.57;7.13;;;;;;;;;;5036956;28;20467;-69
2023/07/11 14:07:57;;;;;;;8.83;7.33;;;;;;;;;;5036540;28;20419;-69
2023/07/11 14:10:24;;;;;;;10.20;7.30;;;;;;;;;;5036787;28;20419;-69
2023/07/11 14:12:50;;;;;;;8.20;6.90;;;;;;;;;;5036767;28;20411;-69
2023/07/11 14:15:18;;;;;;;7.50;6.90;;;;;;;;;;5036490;28;20775;-69
2023/07/11 14:17:45;;;;;;;5.40;4.90;;;;;;;;;;5035951;28;20469;-69
2023/07/11 14:20:14;;;;;;;9.23;6.40;;;;;;;;;;5036571;28;20918;-69
2023/07/11 14:22:40;;;;;;;11.20;7.00;;;;;;;;;;5037352;28;20425;-70
2023/07/11 14:25:12;;;;;;;7.40;6.40;;;;;;;;;;5036612;28;20477;-69
2023/07/11 14:27:38;;;;;;;10.30;7.63;;;;;;;;;;5052271;28;20412;-69
2023/07/11 14:30:04;;;;;;;9.77;8.20;;;;;;;;;;5037041;28;20419;-69
2023/07/11 14:32:30;;;;;;;8.20;7.60;;;;;;;;;;5037060;28;20894;-69
2023/07/11 14:34:56;;;;;;;8.90;8.20;;;;;;;;;;5036550;28;20438;-69
2023/07/11 14:37:22;;;;;;;8.93;8.07;;;;;;;;;;5036771;28;20781;-69
2023/07/11 14:39:48;;;;;;;11.07;10.00;;;;;;;;;;5036529;28;20526;-69
2023/07/11 14:42:19;;;;;;;10.37;8.90;;;;;;;;;;5036898;28;20470;-69
2023/07/11 14:44:45;;;;;;;9.07;8.17;;;;;;;;;;5036584;28;20474;-69
2023/07/11 14:47:11;;;;;;;11.40;10.20;;;;;;;;;;5037023;28;20422;-70
2023/07/11 14:49:37;;;;;;;10.67;7.40;;;;;;;;;;5036106;28;20598;-69
2023/07/11 14:52:03;;;;;;;14.10;10.00;;;;;;;;;;5036514;28;20478;-69
2023/07/11 14:54:32;;;;;;;15.40;7.73;;;;;;;;;;5036432;28;20176;-69
2023/07/11 14:56:58;;;;;;;8.50;7.90;;;;;;;;;;5036209;28;20417;-69